Latest Coastal Weather Observations for Hobart

IDT60701

Issued at 1:22 pm EDT Tuesday 2 March 2021 (issued every 10 minutes, with the page automatically refreshed every 10 minutes)

About coastal observations | Map of coastal stations | Coastal observations for TAS | Marine services | Other Formats
Station Details ID: 094029 Name: HOBART (ELLERSLIE ROAD) Lat: -42.89 Lon: 147.33 Height: 50.5 m
Data from the previous 72 hours. | See also: Recent months at Hobart
Date/Time
EDT
Wind Sea
Height
m
Swell Vis
km
Cloud Weather Temp
°C
Press
MSL
hPa
Rain since
9am
mm
Dir  Spd
kts
Gust
kts
Height
m
Period
s
Dir
02/01:00pm SW 9 17 - - - - - - - 14.9 1014.1 0.4
02/12:30pm SW 12 21 - - - - - - - 13.4 1014.3 0.4
02/12:00pm SSW 11 21 - - - - - - Recent precip. 13.9 1014.1 0.4
02/11:30am SSW 13 21 - - - - - - - 11.5 1014.3 0.4
02/11:00am SW 11 19 - - - - - - - 13.5 1013.9 0.2
02/10:38am SW 17 31 - - - - - - - 13.9 1013.6 0.2
02/10:30am SW 13 21 - - - - - - - 13.8 1013.7 0.2
02/10:06am SW 15 28 - - - - - - - 13.2 1013.5 0.2
02/10:00am SW 13 23 - - - - - - - 13.1 1013.5 0.2
02/09:30am SW 15 27 - - - - - - - 12.9 1013.1 0.0
02/09:00am SW 18 29 - - - - - - - 13.0 1012.6 6.6
02/08:31am SW 17 27 - - - - - - - 12.2 1012.1 6.6
02/08:30am SW 18 27 - - - - - - - 12.1 1012.0 6.6
02/08:01am SW 15 26 - - - - - - - 11.2 1011.8 6.6
02/08:00am SW 14 22 - - - - - - - 11.1 1011.8 6.6
02/07:30am SW 13 24 - - - - - - - 11.0 1011.6 6.6
02/07:00am SW 16 26 - - - - - - - 10.8 1011.2 6.6
02/06:32am SW 15 25 - - - - - - - 10.8 1010.7 6.6
02/06:30am SW 16 25 - - - - - - - 10.8 1010.7 6.6
02/06:26am SW 15 25 - - - - - - - 10.8 1010.7 6.6
02/06:00am SW 12 21 - - - - - - - 10.8 1010.4 6.6
02/05:51am SW 12 22 - - - - - - - 11.0 1010.2 6.6
02/05:30am SW 7 12 - - - - - - - 10.8 1010.1 6.6
02/05:00am SSW 8 15 - - - - - - - 10.8 1009.7 6.6
02/04:30am NNW 2 6 - - - - - - - 11.1 1009.3 6.6
02/04:00am SSW 9 15 - - - - - - - 11.3 1009.1 6.6
02/03:30am SW 9 16 - - - - - - - 11.5 1008.5 6.6
02/03:00am SSW 11 17 - - - - - - - 11.6 1007.8 6.6
02/02:30am SW 15 25 - - - - - - - 11.5 1007.2 6.6
02/02:00am SW 13 27 - - - - - - - 11.5 1006.9 6.6
02/01:42am SW 16 26 - - - - - - - 11.4 1006.6 6.6
02/01:30am SW 13 22 - - - - - - - 11.3 1006.5 6.6
02/01:00am SW 10 13 - - - - - - - 11.5 1005.9 6.2
02/12:30am SW 9 15 - - - - - - - 11.6 1005.3 5.4
02/12:00am WSW 7 12 - - - - - - Rain 11.8 1004.9 4.8
 
Date/Time
EDT
Wind Sea
Height
m
Swell Vis
km
Cloud Weather Temp
°C
Press
MSL
hPa
Rain since
9am
mm
Dir  Spd
kts
Gust
kts
Height
m
Period
s
Dir
01/11:30pm SW 14 23 - - - - - - - 11.7 1004.6 4.4
01/11:00pm SW 8 19 - - - - - - - 11.7 1004.4 3.8
01/10:30pm SW 13 20 - - - - - - - 11.7 1003.8 3.0
01/10:01pm SW 15 25 - - - - - - - 12.3 1003.0 2.8
01/10:00pm SW 14 25 - - - - - - - 12.3 1003.0 2.8
01/09:40pm WSW 15 31 - - - - - - - 12.0 1002.8 2.8
01/09:30pm W 14 26 - - - - - - - 12.3 1002.7 2.8
01/09:01pm W 15 32 - - - - - - - 12.7 1002.5 2.8
01/09:00pm W 15 23 - - - - - - - 12.6 1002.5 2.8
01/08:30pm WNW 12 22 - - - - - - - 13.1 1002.3 2.8
01/08:00pm W 10 17 - - - - - - - 13.1 1002.1 2.8
01/07:30pm W 12 23 - - - - - - - 13.7 1001.8 2.8
01/07:00pm WSW 16 24 - - - - - - - 14.0 1001.4 2.8
01/06:48pm WSW 15 25 - - - - - - - 14.6 1001.6 2.8
01/06:30pm SW 11 20 - - - - - - - 15.6 1001.1 2.8
01/06:00pm WSW 12 20 - - - - - - - 16.5 1000.9 2.8
01/05:30pm SSW 5 9 - - - - - - - 16.8 1000.9 2.8
01/05:00pm WSW 10 19 - - - - - - - 16.3 1001.4 2.8
01/04:30pm SW 12 24 - - - - - - - 15.9 1000.6 2.8
01/04:26pm SW 12 24 - - - - - - - 15.8 1000.5 2.8
01/04:00pm NNW 6 12 - - - - - - - 16.5 1000.6 2.8
01/03:30pm WNW 14 21 - - - - - - - 15.9 1000.3 2.8
01/03:19pm WNW 15 29 - - - - - - - 16.8 1000.6 1.6
01/03:00pm NW 9 17 - - - - - - - 20.8 1000.1 0.0
01/02:30pm N 7 12 - - - - - - - 20.3 1000.9 0.0
01/02:00pm NW 6 9 - - - - - - - 20.2 1001.7 0.0
01/01:30pm NE 7 9 - - - - - - - 18.7 1002.5 0.0
01/01:00pm SE 5 7 - - - - - - - 17.0 1003.3 0.0
01/12:30pm S 3 4 - - - - - - - 16.9 1004.0 0.0
01/12:00pm SSE 4 6 - - - - - - - 17.1 1004.5 0.0
01/11:30am SE 2 4 - - - - - - - 17.0 1004.9 0.0
01/11:00am NW 3 5 - - - - - - - 17.7 1005.3 0.0
01/10:30am NNW 3 5 - - - - - - - 17.3 1005.4 0.0
01/10:00am SSW 1 3 - - - - - - - 16.1 1005.7 0.0
01/09:30am NNW 5 7 - - - - - - - 15.8 1005.8 0.0
01/09:00am NW 4 8 - - - - - - - 15.7 1006.0 1.2
01/08:30am N 4 7 - - - - - - - 15.5 1006.2 1.2
01/08:00am SW 1 3 - - - - - - - 15.2 1006.2 1.2
01/07:30am NW 4 5 - - - - - - - 15.1 1006.3 1.2
01/07:00am NNW 5 7 - - - - - - - 15.1 1006.6 1.2
01/06:30am NW 5 7 - - - - - - - 15.1 1006.6 1.2
01/06:00am WNW 4 5 - - - - - - Recent precip. 15.1 1006.4 1.2
01/05:30am NW 5 7 - - - - - - - 15.2 1006.7 1.2
01/05:00am NNW 5 7 - - - - - - - 15.4 1006.9 0.8
01/04:30am NW 2 4 - - - - - - - 15.5 1007.1 0.6
01/04:00am NW 2 4 - - - - - - - 15.6 1007.5 0.6
01/03:30am NE 3 5 - - - - - - - 15.6 1007.9 0.6
01/03:00am W 6 8 - - - - - - - 15.5 1008.2 0.6
01/02:30am S 2 4 - - - - - - - 15.4 1008.0 0.6
01/02:00am WSW 3 6 - - - - - - - 15.4 1008.9 0.6
01/01:30am WSW 5 7 - - - - - - - 15.2 1009.2 0.6
01/01:00am WSW 5 6 - - - - - - - 15.1 1009.5 0.4
01/12:30am WSW 4 6 - - - - - - - 15.3 1009.8 0.2
01/12:00am SW 4 6 - - - - - - - 15.7 1010.3 0.0
 
Date/Time
EDT
Wind Sea
Height
m
Swell Vis
km
Cloud Weather Temp
°C
Press
MSL
hPa
Rain since
9am
mm
Dir  Spd
kts
Gust
kts
Height
m
Period
s
Dir
28/11:30pm SW 5 6 - - - - - - - 16.0 1010.7 0.0
28/11:00pm SSW 4 6 - - - - - - - 16.4 1010.7 0.0
28/10:30pm SSW 6 9 - - - - - - - 16.4 1011.0 0.0
28/10:00pm SSW 7 10 - - - - - - - 16.4 1011.2 0.0
28/09:30pm SSW 8 12 - - - - - - - 16.5 1011.4 0.0
28/09:00pm SSW 9 13 - - - - - - - 16.5 1011.5 0.0
28/08:30pm S 7 11 - - - - - - - 16.5 1011.3 0.0
28/08:00pm S 8 11 - - - - - - - 16.6 1011.2 0.0
28/07:30pm SSE 9 13 - - - - - - - 16.7 1011.0 0.0
28/07:00pm SSE 12 16 - - - - - - - 16.7 1011.0 0.0
28/06:30pm SSE 12 17 - - - - - - - 17.0 1010.9 0.0
28/06:00pm SE 13 18 - - - - - - - 17.8 1010.7 0.0
28/05:30pm SSE 12 18 - - - - - - - 18.0 1010.6 0.0
28/05:00pm SE 11 16 - - - - - - - 17.8 1010.8 0.0
28/04:30pm SE 11 17 - - - - - - - 18.3 1010.6 0.0
28/04:00pm SSE 10 14 - - - - - - - 20.1 1010.5 0.0
28/03:30pm SE 14 17 - - - - - - - 20.5 1010.5 0.0
28/03:00pm SE 10 13 - - - - - - - 20.6 1010.9 0.0
28/02:30pm SE 11 14 - - - - - - - 21.0 1011.2 0.0
28/02:00pm ESE 9 13 - - - - - - - 20.3 1011.5 0.0
28/01:30pm ESE 8 11 - - - - - - - 20.6 1011.7 0.0
28/01:00pm SE 7 9 - - - - - - - 19.6 1012.0 0.0
28/12:30pm ESE 7 9 - - - - - - - 18.9 1012.5 0.0
28/12:00pm ESE 6 8 - - - - - - - 19.4 1012.8 0.0
28/11:30am ESE 5 6 - - - - - - - 18.6 1013.1 0.0
28/11:00am ESE 5 6 - - - - - - - 17.5 1013.3 0.0
28/10:30am SSE 5 6 - - - - - - - 17.0 1013.6 0.0
28/10:00am E 4 6 - - - - - - - 17.3 1013.8 0.0
28/09:30am NE 4 6 - - - - - - - 17.8 1013.7 0.0
28/09:00am NNW 4 6 - - - - - - - 16.0 1013.7 0.0
28/08:30am NNW 4 6 - - - - - - - 15.1 1013.8 0.0
28/08:00am NNW 5 6 - - - - - - - 14.3 1013.6 0.0
28/07:30am NW 4 5 - - - - - - - 12.3 1013.5 0.0
28/07:00am W 6 9 - - - - - - - 11.7 1013.3 0.0
28/06:30am W 5 7 - - - - - - - 11.7 1013.1 0.0
28/06:00am WSW 7 8 - - - - - - - 11.9 1013.2 0.0
28/05:30am WSW 6 7 - - - - - - - 12.0 1013.1 0.0
28/05:00am NW 5 7 - - - - - - - 13.3 1013.4 0.0
28/04:30am NNW 8 11 - - - - - - - 13.7 1013.5 0.0
28/04:00am NNW 7 9 - - - - - - - 14.0 1013.9 0.0
28/03:30am NNW 5 7 - - - - - - - 14.3 1013.8 0.0
28/03:00am N 1 4 - - - - - - - 14.4 1013.8 0.0
28/02:30am CALM 0 0 - - - - - - - 14.4 1013.8 0.0
28/02:00am W 1 3 - - - - - - - 14.3 1014.1 0.0
28/01:30am W 4 5 - - - - - - - 14.2 1014.3 0.0
28/01:00am WSW 4 5 - - - - - - - 14.1 1014.4 0.0
28/12:30am WSW 4 6 - - - - - - - 13.9 1014.6 0.0
28/12:00am WSW 4 5 - - - - - - - 13.9 1014.7 0.0
 
Date/Time
EDT
Wind Sea
Height
m
Swell Vis
km
Cloud Weather Temp
°C
Press
MSL
hPa
Rain since
9am
mm
Dir  Spd
kts
Gust
kts
Height
m
Period
s
Dir
27/11:30pm WSW 5 6 - - - - - - - 14.1 1014.9 0.0
27/11:00pm S 3 4 - - - - - - - 14.0 1015.1 0.0
27/10:30pm S 2 5 - - - - - - - 14.0 1015.1 0.0
27/10:00pm SSE 5 8 - - - - - - - 14.2 1015.2 0.0
27/09:30pm SSE 5 8 - - - - - - - 14.5 1015.3 0.0
27/09:00pm SSE 5 7 - - - - - - - 14.8 1015.3 0.0
27/08:30pm SSE 5 7 - - - - - - - 14.8 1014.8 0.0
27/08:00pm SSE 5 7 - - - - - - - 15.0 1014.8 0.0
27/07:30pm SSE 5 8 - - - - - - - 15.2 1014.4 0.0
27/07:00pm SSE 7 11 - - - - - - - 15.6 1014.1 0.0
27/06:30pm SSE 9 12 - - - - - - - 15.8 1013.9 0.0
27/06:00pm SE 11 13 - - - - - - - 16.3 1013.8 0.0
27/05:30pm SE 9 12 - - - - - - - 16.9 1013.6 0.0
27/05:00pm SE 9 12 - - - - - - - 17.5 1013.6 0.0
27/04:30pm SE 9 13 - - - - - - - 17.9 1013.8 0.0
27/04:00pm SE 9 13 - - - - - - - 18.0 1013.9 0.0
27/03:30pm SE 11 14 - - - - - - - 18.0 1014.0 0.0
27/03:00pm SE 9 11 - - - - - - - 18.0 1014.2 0.0
27/02:30pm SE 10 13 - - - - - - - 17.7 1014.5 0.0
27/02:00pm SE 9 12 - - - - - - - 17.4 1014.7 0.0
27/01:30pm SE 9 11 - - - - - - - 17.4 1015.0 0.0

Other formats

Comma delimited format used in spreadsheet applications
http://www.bom.gov.au/fwo/IDT60701/IDT60701.94970.axf

JavaScript Object Notation format (JSON) in row-major order
http://www.bom.gov.au/fwo/IDT60701/IDT60701.94970.json

Data quality

Most of these data are generated automatically and are frequently updated. Quality checks on data are not normally performed. It is possible for incorrect values to appear. Refer to information at About Latest Weather Observations and please check the disclaimer before using these data.